Time;durP1;ratioP1;P1;durP2;ratioP2;P2;SDS_P1;SDS_P2;PMS_P1;PMS_P2;Temp;Humidity;BMP_temperature;BMP_pressure;BME280_temperature;BME280_humidity;BME280_pressure;Samples;Min_cycle;Max_cycle;Signal;HPM_P1;HPM_P2
2023/08/05 00:00:21;;;;;;;8.17;4.17;;;;;;;13.91;100.00;98689.53;4948494;28;20228;-62
2023/08/05 00:02:49;;;;;;;6.97;4.13;;;;;;;13.91;100.00;98695.56;4945303;28;20221;-62
2023/08/05 00:05:16;;;;;;;6.73;4.57;;;;;;;13.94;100.00;98694.44;4930819;28;20244;-62
2023/08/05 00:07:42;;;;;;;13.20;4.50;;;;;;;13.92;100.00;98693.78;4932436;28;20234;-62
2023/08/05 00:10:09;;;;;;;9.37;4.87;;;;;;;13.91;100.00;98695.56;4927085;28;20337;-62
2023/08/05 00:12:35;;;;;;;10.63;4.70;;;;;;;13.95;100.00;98698.69;4936277;28;20295;-63
2023/08/05 00:15:02;;;;;;;8.00;5.17;;;;;;;13.96;100.00;98702.94;4924452;28;20768;-63
2023/08/05 00:17:29;;;;;;;13.30;4.40;;;;;;;13.92;100.00;98705.09;4934709;28;20704;-63
2023/08/05 00:19:57;;;;;;;9.47;4.77;;;;;;;13.93;100.00;98698.03;4935363;28;20319;-63
2023/08/05 00:22:24;;;;;;;7.40;4.67;;;;;;;13.94;100.00;98695.25;4930065;29;20241;-63
2023/08/05 00:24:50;;;;;;;9.27;4.27;;;;;;;13.94;100.00;98704.94;4926123;29;20919;-63
2023/08/05 00:27:17;;;;;;;9.77;4.80;;;;;;;13.98;100.00;98708.84;4931323;29;20236;-63
2023/08/05 00:29:45;;;;;;;8.13;4.67;;;;;;;14.00;100.00;98706.88;4932454;28;20582;-63
2023/08/05 00:32:12;;;;;;;11.33;5.57;;;;;;;13.95;100.00;98707.38;4931226;29;20253;-63
2023/08/05 00:34:39;;;;;;;10.73;5.20;;;;;;;13.95;100.00;98701.31;4928079;29;20588;-62
2023/08/05 00:37:07;;;;;;;8.43;4.50;;;;;;;13.94;100.00;98707.56;4932162;28;20236;-62
2023/08/05 00:39:33;;;;;;;12.00;5.33;;;;;;;13.96;100.00;98706.38;4929623;28;20711;-62
2023/08/05 00:42:00;;;;;;;13.07;5.17;;;;;;;13.96;100.00;98706.38;4931249;29;20830;-63
2023/08/05 00:44:27;;;;;;;11.00;4.80;;;;;;;13.94;100.00;98704.94;4925654;29;20255;-63
2023/08/05 00:46:53;;;;;;;8.80;4.60;;;;;;;13.93;100.00;98708.53;4925154;28;20236;-63
2023/08/05 00:49:21;;;;;;;10.87;5.03;;;;;;;13.95;100.00;98704.75;4936540;28;20233;-63
2023/08/05 00:51:48;;;;;;;10.80;5.20;;;;;;;13.95;100.00;98702.13;4929782;29;20241;-63
2023/08/05 00:54:17;;;;;;;7.80;4.23;;;;;;;13.88;100.00;98694.13;4927555;28;20743;-64
2023/08/05 00:56:44;;;;;;;7.97;4.50;;;;;;;13.90;100.00;98693.94;4923206;28;20233;-63
2023/08/05 00:59:11;;;;;;;8.20;5.10;;;;;;;13.86;100.00;98687.41;4925663;28;20299;-62
2023/08/05 01:01:40;;;;;;;6.70;4.23;;;;;;;13.88;100.00;98683.63;4917785;29;20574;-63
2023/08/05 01:04:07;;;;;;;10.43;5.00;;;;;;;13.84;100.00;98690.22;4913517;28;20220;-61
2023/08/05 01:06:37;;;;;;;11.83;5.10;;;;;;;13.83;100.00;98685.94;4931706;28;20826;-62
2023/08/05 01:09:04;;;;;;;12.00;4.83;;;;;;;13.82;100.00;98692.19;4910449;29;20240;-63
2023/08/05 01:11:32;;;;;;;9.53;4.83;;;;;;;13.89;100.00;98684.44;4925297;29;20225;-63
2023/08/05 01:13:58;;;;;;;9.30;4.80;;;;;;;13.86;100.00;98684.78;4915949;28;20347;-63
2023/08/05 01:16:25;;;;;;;8.40;4.67;;;;;;;13.84;100.00;98678.88;4926526;29;20225;-64
2023/08/05 01:18:53;;;;;;;5.87;4.33;;;;;;;13.80;100.00;98682.81;4923046;28;20703;-63
2023/08/05 01:21:29;;;;;;;8.43;4.43;;;;;;;13.75;100.00;98685.97;4924979;28;20237;-63
2023/08/05 01:24:09;;;;;;;11.20;4.60;;;;;;;13.68;100.00;98687.63;4923350;28;20865;-63
2023/08/05 01:26:42;;;;;;;8.63;5.30;;;;;;;13.68;100.00;98691.09;4927300;29;20248;-63
2023/08/05 01:29:09;;;;;;;8.43;4.87;;;;;;;13.66;100.00;98685.19;4917977;28;20228;-64
2023/08/05 01:31:43;;;;;;;8.53;5.20;;;;;;;13.62;100.00;98693.56;4942741;28;20233;-63
2023/08/05 01:34:11;;;;;;;7.93;4.87;;;;;;;13.57;100.00;98683.59;4929418;29;20240;-63
2023/08/05 01:36:40;;;;;;;11.40;5.10;;;;;;;13.52;100.00;98680.66;4927001;29;20330;-63
2023/08/05 01:39:07;;;;;;;13.37;4.83;;;;;;;13.49;100.00;98686.22;4919646;28;20961;-63
2023/08/05 01:41:41;;;;;;;12.13;5.90;;;;;;;13.41;100.00;98681.78;4928413;29;20235;-63
2023/08/05 01:44:08;;;;;;;11.20;5.07;;;;;;;13.33;100.00;98671.31;4929647;28;20255;-63
2023/08/05 01:46:40;;;;;;;10.70;5.60;;;;;;;13.25;100.00;98667.72;4933996;29;20231;-63
2023/08/05 01:49:06;;;;;;;9.00;4.83;;;;;;;13.14;100.00;98662.84;4928107;28;20231;-63
2023/08/05 01:51:40;;;;;;;8.10;4.70;;;;;;;13.05;100.00;98666.47;4937021;29;20317;-63
2023/08/05 01:54:06;;;;;;;8.03;4.97;;;;;;;13.02;100.00;98664.19;4932181;28;20229;-64
2023/08/05 01:56:59;;;;;;;10.90;4.50;;;;;;;12.92;100.00;98661.72;4933329;28;20258;-63
2023/08/05 01:59:27;;;;;;;11.87;4.97;;;;;;;12.79;100.00;98664.84;4928477;28;20250;-64
2023/08/05 02:01:54;;;;;;;11.67;4.80;;;;;;;12.66;100.00;98660.91;4933387;29;20291;-63
2023/08/05 02:04:21;;;;;;;11.50;5.00;;;;;;;12.61;100.00;98650.09;4935523;28;20252;-63
2023/08/05 02:06:48;;;;;;;8.67;4.20;;;;;;;12.48;100.00;98652.38;4933855;29;20575;-63
2023/08/05 02:09:14;;;;;;;11.90;5.40;;;;;;;12.47;100.00;98654.19;4926452;29;20652;-63
2023/08/05 02:11:41;;;;;;;10.47;5.13;;;;;;;12.43;100.00;98649.44;4931384;29;20233;-63
2023/08/05 02:14:09;;;;;;;10.20;4.70;;;;;;;12.45;100.00;98655.31;4930891;28;20459;-63
2023/08/05 02:16:40;;;;;;;12.63;4.77;;;;;;;12.35;100.00;98658.09;4938233;28;20239;-63
2023/08/05 02:19:06;;;;;;;7.37;5.00;;;;;;;12.26;100.00;98652.03;4934557;28;20601;-63
2023/08/05 02:21:40;;;;;;;7.10;5.17;;;;;;;12.18;100.00;98650.22;4930677;29;20230;-63
2023/08/05 02:24:09;;;;;;;13.23;5.43;;;;;;;12.14;100.00;98656.75;4931633;28;20276;-63
2023/08/05 02:26:41;;;;;;;12.10;5.13;;;;;;;12.08;100.00;98652.16;4931392;28;20238;-63
2023/08/05 02:29:09;;;;;;;7.87;5.10;;;;;;;12.08;100.00;98644.31;4931272;28;20231;-63
2023/08/05 02:31:41;;;;;;;11.00;4.60;;;;;;;12.06;100.00;98641.03;4930866;29;20240;-63
2023/08/05 02:34:07;;;;;;;12.00;5.37;;;;;;;12.00;100.00;98646.91;4929771;28;20239;-63
2023/08/05 02:36:39;;;;;;;7.07;5.13;;;;;;;11.99;100.00;98643.47;4931205;29;20239;-63
2023/08/05 02:39:06;;;;;;;10.20;5.00;;;;;;;11.97;100.00;98645.41;4931339;28;20245;-63
2023/08/05 02:41:33;;;;;;;7.40;4.70;;;;;;;11.93;100.00;98649.31;4931793;29;20583;-63
2023/08/05 02:44:00;;;;;;;13.17;5.70;;;;;;;11.94;100.00;98646.53;4922337;28;20233;-63
2023/08/05 02:46:29;;;;;;;12.13;5.57;;;;;;;12.04;100.00;98646.44;4919049;29;20226;-63
2023/08/05 02:48:55;;;;;;;8.77;4.93;;;;;;;12.14;100.00;98643.66;4917077;28;20244;-63
2023/08/05 02:51:22;;;;;;;13.23;5.13;;;;;;;12.19;100.00;98643.22;4935364;29;20728;-63
2023/08/05 02:53:49;;;;;;;8.73;4.93;;;;;;;12.17;100.00;98647.78;4929310;29;20243;-63
2023/08/05 02:56:16;;;;;;;9.60;4.90;;;;;;;12.20;100.00;98644.81;4923169;29;20238;-63
2023/08/05 02:58:42;;;;;;;9.07;5.10;;;;;;;12.23;100.00;98641.88;4924671;29;21035;-63
2023/08/05 03:01:10;;;;;;;11.90;5.07;;;;;;;12.24;100.00;98635.66;4922471;28;20314;-63
2023/08/05 03:03:38;;;;;;;8.10;4.73;;;;;;;12.33;100.00;98631.28;4930995;29;20240;-63
2023/08/05 03:06:05;;;;;;;7.07;4.90;;;;;;;12.30;100.00;98639.44;4923654;29;20303;-63
2023/08/05 03:08:31;;;;;;;9.43;4.87;;;;;;;12.28;100.00;98638.78;4929941;29;20243;-63
2023/08/05 03:10:59;;;;;;;7.17;4.87;;;;;;;12.28;100.00;98644.84;4916786;29;20223;-63
2023/08/05 03:13:27;;;;;;;8.07;5.13;;;;;;;12.37;100.00;98643.88;4930973;29;20242;-63
2023/08/05 03:15:55;;;;;;;10.80;5.23;;;;;;;12.40;100.00;98647.97;4933080;28;20231;-63
2023/08/05 03:18:22;;;;;;;7.37;5.53;;;;;;;12.46;100.00;98643.88;4950205;28;20225;-64
2023/08/05 03:20:50;;;;;;;9.43;5.50;;;;;;;12.52;100.00;98648.47;4926706;29;20770;-63
2023/08/05 03:23:20;;;;;;;9.20;5.10;;;;;;;12.49;100.00;98647.00;4940284;28;20235;-63
2023/08/05 03:25:51;;;;;;;12.17;6.17;;;;;;;12.51;100.00;98654.69;4925780;28;20238;-63
2023/08/05 03:28:18;;;;;;;10.73;5.47;;;;;;;12.57;100.00;98658.47;4937918;28;20290;-63
2023/08/05 03:30:50;;;;;;;8.17;5.17;;;;;;;12.61;100.00;98659.78;5140116;23;21249;-63
2023/08/05 03:33:22;;;;;;;9.00;5.40;;;;;;;12.70;100.00;98662.22;4941424;28;21170;-63
2023/08/05 03:35:50;;;;;;;8.87;5.53;;;;;;;12.73;100.00;98655.03;4918252;29;20277;-63
2023/08/05 03:38:21;;;;;;;7.63;4.77;;;;;;;12.77;100.00;98651.09;4925086;29;20731;-63
2023/08/05 03:40:47;;;;;;;9.87;5.60;;;;;;;12.79;100.00;98647.31;4942920;29;20227;-62
2023/08/05 03:43:15;;;;;;;14.43;6.47;;;;;;;12.81;100.00;98645.34;4914836;29;20234;-63
2023/08/05 03:45:50;;;;;;;9.40;6.27;;;;;;;12.84;100.00;98646.84;4907783;29;20227;-62
2023/08/05 03:48:16;;;;;;;14.30;5.67;;;;;;;12.85;100.00;98640.63;4909715;29;20235;-62
2023/08/05 03:50:43;;;;;;;8.97;6.20;;;;;;;12.89;100.00;98643.72;4907178;29;20227;-63
2023/08/05 03:53:11;;;;;;;10.77;6.23;;;;;;;12.85;100.00;98656.31;4903680;29;20416;-63
2023/08/05 03:55:37;;;;;;;6.87;5.47;;;;;;;12.88;100.00;98657.78;4914859;29;20314;-63
2023/08/05 03:58:04;;;;;;;10.63;5.70;;;;;;;12.88;100.00;98665.66;4909147;29;20227;-62
2023/08/05 04:00:32;;;;;;;11.93;5.63;;;;;;;12.89;100.00;98664.66;4907346;29;20278;-62
2023/08/05 04:02:58;;;;;;;9.10;6.00;;;;;;;12.92;100.00;98669.56;4906751;29;20246;-62
2023/08/05 04:05:25;;;;;;;9.00;5.97;;;;;;;12.97;100.00;98668.13;4912243;29;20240;-62
2023/08/05 04:07:53;;;;;;;17.27;5.47;;;;;;;13.06;100.00;98678.59;4911115;29;20297;-62
2023/08/05 04:10:22;;;;;;;7.53;5.23;;;;;;;13.09;100.00;98686.13;4927047;29;20248;-62
2023/08/05 04:12:49;;;;;;;9.23;6.03;;;;;;;13.08;100.00;98685.28;4911277;29;20237;-62
2023/08/05 04:15:17;;;;;;;10.90;5.50;;;;;;;13.10;100.00;98685.13;4909562;29;20605;-62
2023/08/05 04:17:47;;;;;;;7.07;5.40;;;;;;;13.14;100.00;98691.69;4917453;29;20235;-62
2023/08/05 04:20:14;;;;;;;9.97;6.60;;;;;;;13.14;100.00;98696.94;4903611;29;20235;-62
2023/08/05 04:22:40;;;;;;;10.37;5.93;;;;;;;13.17;100.00;98696.59;4912360;29;20255;-62
2023/08/05 04:25:07;;;;;;;9.40;5.10;;;;;;;13.21;100.00;98699.69;4911693;29;20268;-62
2023/08/05 04:27:37;;;;;;;10.77;6.43;;;;;;;13.22;100.00;98712.66;4913870;29;20565;-62
2023/08/05 04:30:08;;;;;;;11.27;5.47;;;;;;;13.24;100.00;98704.59;4911478;29;20663;-62
2023/08/05 04:32:34;;;;;;;12.40;5.93;;;;;;;13.27;100.00;98709.50;4911859;29;20254;-62
2023/08/05 04:35:01;;;;;;;8.77;6.27;;;;;;;13.29;100.00;98723.28;4908022;29;20262;-62
2023/08/05 04:37:27;;;;;;;8.53;5.80;;;;;;;13.34;100.00;98720.97;4914396;29;20232;-62
2023/08/05 04:39:54;;;;;;;9.03;5.37;;;;;;;13.38;100.00;98721.44;4911324;28;20255;-62
2023/08/05 04:42:21;;;;;;;14.53;6.70;;;;;;;13.40;100.00;98727.34;4913265;29;20565;-62
2023/08/05 04:44:49;;;;;;;8.67;5.83;;;;;;;13.41;100.00;98724.59;4910703;29;20244;-63
2023/08/05 04:47:15;;;;;;;9.47;5.80;;;;;;;13.45;100.00;98727.69;4906181;29;20236;-63
2023/08/05 04:49:44;;;;;;;9.93;5.70;;;;;;;13.46;100.00;98725.91;4913796;29;20244;-63
2023/08/05 04:52:13;;;;;;;9.23;6.23;;;;;;;13.51;100.00;98718.34;4907372;29;20260;-63
2023/08/05 04:54:41;;;;;;;8.17;5.87;;;;;;;13.55;100.00;98723.06;4912488;28;20237;-63
2023/08/05 04:57:08;;;;;;;10.97;6.03;;;;;;;13.56;100.00;98723.91;4907907;29;20229;-63
2023/08/05 04:59:35;;;;;;;9.40;5.40;;;;;;;13.61;100.00;98726.84;4912342;29;20297;-62
2023/08/05 05:02:04;;;;;;;13.07;6.60;;;;;;;13.67;100.00;98720.94;4907566;29;20228;-62
2023/08/05 05:04:30;;;;;;;9.70;6.57;;;;;;;13.70;100.00;98714.53;4909086;29;20232;-62
2023/08/05 05:06:57;;;;;;;9.33;6.83;;;;;;;13.71;100.00;98714.38;4908514;29;20260;-62
2023/08/05 05:09:24;;;;;;;9.30;5.70;;;;;;;13.77;100.00;98707.63;4904913;29;20236;-62
2023/08/05 05:11:53;;;;;;;8.43;6.07;;;;;;;13.83;100.00;98703.47;4908172;29;20249;-62
2023/08/05 05:14:19;;;;;;;11.57;6.57;;;;;;;13.92;100.00;98710.34;4896478;29;20305;-62
2023/08/05 05:16:46;;;;;;;7.27;5.60;;;;;;;14.02;100.00;98715.41;4909239;29;20701;-63
2023/08/05 05:19:14;;;;;;;8.73;5.00;;;;;;;14.08;100.00;98719.13;4900715;29;20235;-63
2023/08/05 05:21:40;;;;;;;8.57;5.53;;;;;;;14.13;100.00;98712.38;4910383;29;20744;-63
2023/08/05 05:24:07;;;;;;;9.57;6.00;;;;;;;14.19;100.00;98710.06;4916430;29;20237;-63
2023/08/05 05:26:37;;;;;;;10.47;5.70;;;;;;;14.25;100.00;98715.44;4915139;29;20890;-63
2023/08/05 05:29:04;;;;;;;7.60;6.33;;;;;;;14.26;100.00;98713.66;4910408;29;20234;-63
2023/08/05 05:31:30;;;;;;;10.60;6.33;;;;;;;14.34;100.00;98716.19;4909182;29;20249;-64
2023/08/05 05:33:57;;;;;;;9.10;6.20;;;;;;;14.39;100.00;98707.81;4902186;29;20591;-64
2023/08/05 05:36:25;;;;;;;9.43;6.87;;;;;;;14.38;100.00;98712.22;4912942;29;20734;-64
2023/08/05 05:38:53;;;;;;;9.83;5.70;;;;;;;14.49;100.00;98712.84;4909049;29;20308;-64
2023/08/05 05:41:19;;;;;;;9.30;6.43;;;;;;;14.49;100.00;98703.16;4909222;29;20237;-63
2023/08/05 05:43:46;;;;;;;9.37;6.17;;;;;;;14.60;100.00;98710.63;4909315;29;20740;-63
2023/08/05 05:46:14;;;;;;;9.37;6.30;;;;;;;14.67;100.00;98709.94;4901069;29;20234;-63
2023/08/05 05:48:41;;;;;;;9.27;5.70;;;;;;;14.76;100.00;98712.34;4903341;29;20226;-63
2023/08/05 05:51:08;;;;;;;8.47;6.53;;;;;;;14.79;100.00;98705.94;4902456;29;20254;-63
2023/08/05 05:53:36;;;;;;;8.20;6.23;;;;;;;14.85;100.00;98707.84;4897747;29;20222;-63
2023/08/05 05:56:02;;;;;;;9.30;6.23;;;;;;;14.94;100.00;98713.03;4908870;29;20327;-63
2023/08/05 05:58:33;;;;;;;6.93;5.40;;;;;;;14.98;100.00;98711.69;4912444;29;20238;-63
2023/08/05 06:01:00;;;;;;;8.80;6.33;;;;;;;14.97;100.00;98705.63;4907566;28;20284;-63
2023/08/05 06:03:27;;;;;;;12.20;5.97;;;;;;;14.94;100.00;98705.97;4909801;28;20240;-63
2023/08/05 06:05:55;;;;;;;10.93;6.57;;;;;;;14.88;100.00;98696.97;4904754;29;20621;-63
2023/08/05 06:08:22;;;;;;;8.50;6.73;;;;;;;14.94;100.00;98703.34;4907480;29;20326;-63
2023/08/05 06:10:51;;;;;;;9.20;6.17;;;;;;;15.09;100.00;98694.69;4911169;29;20637;-63
2023/08/05 06:13:18;;;;;;;8.40;5.43;;;;;;;15.32;100.00;98690.19;4900583;29;20265;-63
2023/08/05 06:15:44;;;;;;;7.27;5.87;;;;;;;15.40;100.00;98693.72;4911929;29;20747;-63
2023/08/05 06:18:11;;;;;;;10.10;6.03;;;;;;;15.50;100.00;98695.09;4897877;29;20239;-63
2023/08/05 06:20:38;;;;;;;7.27;5.63;;;;;;;15.60;100.00;98704.53;4904463;29;20317;-63
2023/08/05 06:23:06;;;;;;;9.40;6.13;;;;;;;15.65;100.00;98702.97;4903934;28;20727;-63
2023/08/05 06:25:33;;;;;;;9.40;6.43;;;;;;;15.65;100.00;98705.59;4913468;29;20231;-62
2023/08/05 06:28:01;;;;;;;9.53;6.93;;;;;;;15.82;100.00;98701.97;4912850;29;20234;-63
2023/08/05 06:30:27;;;;;;;10.33;6.73;;;;;;;15.87;100.00;98689.94;4908586;29;20254;-62
2023/08/05 06:32:54;;;;;;;8.67;7.13;;;;;;;15.77;100.00;98698.09;4903530;28;20255;-63
2023/08/05 06:35:20;;;;;;;8.93;7.27;;;;;;;15.77;100.00;98697.25;4907768;29;20238;-62
2023/08/05 06:37:47;;;;;;;9.80;6.93;;;;;;;15.70;100.00;98684.03;4910910;29;20241;-63
2023/08/05 06:40:15;;;;;;;11.07;6.37;;;;;;;15.72;100.00;98687.28;4915314;29;20227;-63
2023/08/05 06:42:42;;;;;;;7.50;6.17;;;;;;;15.75;100.00;98694.00;4912083;29;20265;-63
2023/08/05 06:45:10;;;;;;;8.40;6.70;;;;;;;15.75;100.00;98701.88;4907016;29;20251;-63
2023/08/05 06:47:37;;;;;;;8.10;6.27;;;;;;;15.84;100.00;98700.78;4917143;29;20274;-63
2023/08/05 06:50:06;;;;;;;11.07;6.10;;;;;;;16.01;100.00;98690.88;4909692;29;20274;-63
2023/08/05 06:52:32;;;;;;;10.07;6.73;;;;;;;16.20;100.00;98692.13;4906757;29;20231;-62
2023/08/05 06:55:01;;;;;;;9.60;6.20;;;;;;;16.32;100.00;98686.38;4908623;29;20240;-62
2023/08/05 06:57:28;;;;;;;13.10;7.57;;;;;;;16.06;100.00;98682.44;4912276;29;20249;-63
2023/08/05 06:59:55;;;;;;;11.07;7.23;;;;;;;16.36;100.00;98683.19;4909368;29;20238;-63
2023/08/05 07:02:23;;;;;;;14.60;6.37;;;;;;;16.38;100.00;98673.28;4910560;29;20236;-63
2023/08/05 07:04:49;;;;;;;8.93;6.20;;;;;;;16.33;100.00;98678.28;4917156;29;20244;-62
2023/08/05 07:07:16;;;;;;;12.47;6.10;;;;;;;16.56;100.00;98677.28;4911619;29;20615;-62
2023/08/05 07:09:42;;;;;;;11.03;6.17;;;;;;;16.66;100.00;98687.50;4911783;28;20238;-62
2023/08/05 07:12:09;;;;;;;7.47;6.00;;;;;;;16.72;100.00;98694.66;4905855;29;20735;-62
2023/08/05 07:14:36;;;;;;;11.13;6.57;;;;;;;16.74;100.00;98697.13;4913923;29;20234;-62
2023/08/05 07:17:02;;;;;;;10.10;6.53;;;;;;;16.72;100.00;98697.28;4910182;29;20250;-62
2023/08/05 07:19:30;;;;;;;8.67;6.03;;;;;;;16.73;100.00;98703.41;4906299;29;20235;-62
2023/08/05 07:21:57;;;;;;;10.33;6.93;;;;;;;16.25;100.00;98701.31;4911265;28;20227;-62
2023/08/05 07:24:24;;;;;;;12.53;7.77;;;;;;;16.41;100.00;98701.06;4914080;28;20235;-62
2023/08/05 07:26:50;;;;;;;8.43;6.83;;;;;;;16.45;100.00;98701.50;4903678;29;20340;-62
2023/08/05 07:29:17;;;;;;;10.10;6.73;;;;;;;16.52;100.00;98699.75;4907416;29;20735;-62
2023/08/05 07:31:44;;;;;;;10.53;7.13;;;;;;;16.46;100.00;98695.22;4900887;29;20236;-62
2023/08/05 07:34:10;;;;;;;11.17;7.60;;;;;;;16.67;100.00;98697.88;4909090;29;20273;-62
2023/08/05 07:36:43;;;;;;;9.60;6.83;;;;;;;16.61;100.00;98696.00;4912604;29;20561;-62
2023/08/05 07:39:09;;;;;;;12.10;6.80;;;;;;;16.67;100.00;98691.78;4905205;29;20322;-63
2023/08/05 07:41:40;;;;;;;11.07;7.20;;;;;;;16.71;100.00;98685.13;4912332;29;20701;-63
2023/08/05 07:44:08;;;;;;;12.10;7.47;;;;;;;16.65;100.00;98678.81;4910113;29;20234;-63
2023/08/05 07:46:41;;;;;;;10.87;7.20;;;;;;;16.42;100.00;98678.16;4911784;29;20230;-63
2023/08/05 07:49:07;;;;;;;9.37;7.00;;;;;;;16.82;100.00;98684.63;4903978;29;20257;-63
2023/08/05 07:51:42;;;;;;;11.10;6.27;;;;;;;16.80;100.00;98678.72;4926011;29;20242;-63
2023/08/05 07:54:09;;;;;;;9.57;6.90;;;;;;;16.97;100.00;98668.72;4906663;29;20231;-63
2023/08/05 07:56:41;;;;;;;11.53;6.17;;;;;;;17.01;100.00;98671.81;4912486;29;20223;-63
2023/08/05 07:59:08;;;;;;;11.23;6.50;;;;;;;17.44;98.57;98664.78;4909941;29;20219;-63
2023/08/05 08:01:42;;;;;;;10.53;7.07;;;;;;;17.55;97.17;98669.50;4906875;29;20243;-62
2023/08/05 08:04:09;;;;;;;10.30;7.27;;;;;;;17.45;96.18;98664.59;4904068;29;20244;-62
2023/08/05 08:06:42;;;;;;;10.60;7.33;;;;;;;17.64;97.40;98672.81;4909893;29;20223;-62
2023/08/05 08:09:09;;;;;;;7.67;6.30;;;;;;;17.92;94.09;98669.28;4906389;29;20307;-62
2023/08/05 08:11:40;;;;;;;10.33;6.57;;;;;;;17.92;95.61;98667.44;4910720;29;20721;-62
2023/08/05 08:14:06;;;;;;;7.60;5.80;;;;;;;18.14;94.09;98662.06;4913633;29;20239;-62
2023/08/05 08:16:59;;;;;;;7.30;5.63;;;;;;;18.17;91.85;98656.38;4908797;29;20248;-62
2023/08/05 08:19:25;;;;;;;8.67;6.53;;;;;;;18.28;91.38;98661.09;4915225;29;20238;-62
2023/08/05 08:21:53;;;;;;;9.00;6.60;;;;;;;18.21;93.16;98672.63;4908045;29;20235;-62
2023/08/05 08:24:20;;;;;;;12.93;5.97;;;;;;;18.74;92.89;98667.44;4904346;29;20224;-62
2023/08/05 08:26:46;;;;;;;8.50;5.93;;;;;;;18.82;89.00;98668.25;4909714;29;20224;-62
2023/08/05 08:29:15;;;;;;;6.70;5.23;;;;;;;18.80;86.67;98660.50;4910836;29;20231;-62
2023/08/05 08:31:41;;;;;;;11.70;5.80;;;;;;;18.54;85.98;98659.50;4913451;29;20248;-62
2023/08/05 08:34:08;;;;;;;8.50;5.47;;;;;;;18.13;87.68;98652.50;4907883;29;20217;-63
2023/08/05 08:36:40;;;;;;;9.00;5.70;;;;;;;17.88;90.21;98655.66;4913697;29;20321;-63
2023/08/05 08:39:08;;;;;;;9.53;5.97;;;;;;;17.84;96.13;98649.97;4911467;29;20238;-63
2023/08/05 08:41:42;;;;;;;7.57;6.17;;;;;;;18.18;95.35;98646.63;4907998;29;20245;-63
2023/08/05 08:44:09;;;;;;;7.47;6.00;;;;;;;18.43;94.23;98639.75;4903712;29;20239;-63
2023/08/05 08:46:40;;;;;;;6.60;5.03;;;;;;;18.75;92.13;98647.09;4903310;29;20281;-63
2023/08/05 08:49:08;;;;;;;8.83;5.67;;;;;;;18.57;92.14;98639.75;4902567;29;20641;-60
2023/08/05 08:51:41;;;;;;;8.60;5.87;;;;;;;18.76;87.69;98640.78;4912700;29;20246;-61
2023/08/05 08:54:10;;;;;;;10.10;6.50;;;;;;;18.71;87.29;98637.94;4903035;29;20240;-61
2023/08/05 08:56:40;;;;;;;8.03;5.17;;;;;;;18.64;87.10;98630.00;4908920;29;20237;-57
2023/08/05 08:59:07;;;;;;;10.23;5.57;;;;;;;18.77;85.84;98636.31;4906131;29;20231;-59
2023/08/05 09:02:00;;;;;;;9.80;5.63;;;;;;;18.47;89.17;98629.59;4899860;28;20308;-60
2023/08/05 09:04:31;;;;;;;8.03;6.23;;;;;;;18.35;90.21;98632.00;4902024;29;20234;-60
2023/08/05 09:06:59;;;;;;;10.37;6.90;;;;;;;18.19;94.36;98630.56;4904841;28;20231;-61
2023/08/05 09:09:30;;;;;;;8.97;6.57;;;;;;;18.38;89.69;98628.16;4907249;29;20244;-60
2023/08/05 09:11:57;;;;;;;11.07;6.50;;;;;;;18.20;91.17;98631.38;4903932;29;20320;-61
2023/08/05 09:14:24;;;;;;;10.43;5.90;;;;;;;18.18;90.39;98631.59;4910022;29;20235;-61
2023/08/05 09:16:59;;;;;;;8.17;5.53;;;;;;;18.31;90.08;98630.78;4903866;29;20232;-60
2023/08/05 09:19:26;;;;;;;6.07;5.47;;;;;;;18.20;89.78;98628.72;4904932;29;20642;-60
2023/08/05 09:21:53;;;;;;;8.10;5.60;;;;;;;18.13;89.94;98618.97;4912384;28;20255;-60
2023/08/05 09:24:23;;;;;;;8.00;5.93;;;;;;;17.99;91.63;98617.31;4907169;29;20231;-60
2023/08/05 09:26:57;;;;;;;7.53;5.43;;;;;;;17.98;90.95;98623.59;4910232;29;20234;-61
2023/08/05 09:29:25;;;;;;;11.30;5.53;;;;;;;18.19;90.01;98619.19;4909892;29;20249;-62
2023/08/05 09:31:56;;;;;;;7.67;5.10;;;;;;;18.11;89.05;98621.00;4904593;29;20240;-61
2023/08/05 09:34:31;;;;;;;7.80;5.87;;;;;;;17.94;91.18;98622.38;4906672;29;20246;-61
2023/08/05 09:36:58;;;;;;;7.17;4.93;;;;;;;17.92;91.22;98617.28;4901692;29;20231;-60
2023/08/05 09:39:24;;;;;;;8.03;4.93;;;;;;;18.21;87.53;98614.50;4908985;29;20243;-61
2023/08/05 09:41:52;;;;;;;9.23;5.57;;;;;;;18.18;87.36;98609.63;4916023;29;20231;-60
2023/08/05 09:47:11;;;;;;;8.97;5.00;;;;;;;18.40;88.75;98605.00;5581886;23;20285;-58
2023/08/05 09:49:39;;;;;;;5.67;4.77;;;;;;;18.53;86.19;98605.00;4945306;28;20718;-57
2023/08/05 09:52:06;;;;;;;8.67;4.87;;;;;;;18.56;88.26;98606.41;4942307;28;20273;-61
2023/08/05 09:54:33;;;;;;;7.57;4.27;;;;;;;18.43;84.25;98607.25;4944451;28;20226;-57
2023/08/05 09:57:03;;;;;;;8.97;4.77;;;;;;;18.49;87.21;98602.97;4939937;28;20234;-57
2023/08/05 09:59:31;;;;;;;9.60;5.03;;;;;;;18.31;86.52;98596.44;4935406;29;20309;-57
2023/08/05 10:02:00;;;;;;;6.47;4.17;;;;;;;18.54;84.38;98595.25;4941920;28;20304;-57
2023/08/05 10:04:30;;;;;;;10.40;3.70;;;;;;;18.31;84.04;98585.88;4945101;28;20227;-56
2023/08/05 10:06:58;;;;;;;4.97;3.33;;;;;;;18.57;81.09;98586.91;4942275;28;20313;-58
2023/08/05 10:09:26;;;;;;;8.57;3.70;;;;;;;18.59;81.40;98584.88;4945973;28;20245;-57
2023/08/05 10:11:53;;;;;;;8.87;4.30;;;;;;;18.83;81.38;98580.78;4946696;28;20276;-58
2023/08/05 10:14:20;;;;;;;4.23;3.40;;;;;;;19.16;80.92;98577.28;4949570;28;20241;-58
2023/08/05 10:16:47;;;;;;;8.27;4.10;;;;;;;19.30;83.16;98578.03;4949641;28;20692;-55
2023/08/05 10:19:14;;;;;;;6.23;3.83;;;;;;;19.48;81.40;98565.97;4946501;28;20231;-58
2023/08/05 10:21:42;;;;;;;5.23;3.83;;;;;;;19.37;81.49;98574.56;4949451;28;20726;-58
2023/08/05 10:24:09;;;;;;;8.30;3.80;;;;;;;19.41;79.77;98568.66;4946753;28;20727;-58
2023/08/05 10:26:44;;;;;;;5.07;3.30;;;;;;;19.28;79.17;98566.84;4949035;28;20261;-55
2023/08/05 10:29:27;;;;;;;6.83;3.13;;;;;;;19.23;75.36;98560.56;4946754;28;20247;-58
2023/08/05 10:32:08;;;;;;;8.37;3.43;;;;;;;19.34;78.01;98557.28;4945212;28;20274;-58
2023/08/05 10:34:34;;;;;;;4.47;3.00;;;;;;;19.60;74.24;98551.03;4948645;28;20236;-58
2023/08/05 10:37:03;;;;;;;5.17;2.77;;;;;;;19.71;70.34;98548.75;4946474;28;20239;-59
2023/08/05 10:39:45;;;;;;;5.30;2.67;;;;;;;19.69;73.42;98541.00;4949385;28;20231;-59
2023/08/05 10:42:36;;;;;;;4.77;3.03;;;;;;;19.57;74.40;98546.16;4946386;28;20244;-57
2023/08/05 10:45:05;;;;;;;3.07;2.77;;;;;;;19.56;71.41;98539.25;4943980;28;20322;-58
2023/08/05 10:47:33;;;;;;;4.70;3.03;;;;;;;19.39;71.52;98530.16;4948167;28;20668;-58
2023/08/05 10:50:00;;;;;;;5.27;2.70;;;;;;;19.36;71.79;98525.28;4946297;28;20235;-58
2023/08/05 10:52:28;;;;;;;3.77;2.70;;;;;;;19.58;75.40;98523.97;4947160;28;20237;-57
2023/08/05 10:54:55;;;;;;;4.47;2.60;;;;;;;20.05;74.51;98522.91;4931842;28;20327;-58
2023/08/05 10:57:47;;;;;;;3.57;2.90;;;;;;;20.15;72.92;98523.19;4948797;28;20242;-57
2023/08/05 11:00:23;;;;;;;4.93;2.90;;;;;;;20.15;73.28;98517.91;4946114;28;20584;-57
2023/08/05 11:03:23;;;;;;;8.90;3.63;;;;;;;20.04;72.27;98516.78;4948116;28;20302;-58
2023/08/05 11:05:50;;;;;;;4.97;2.97;;;;;;;19.94;70.91;98505.84;4946299;28;20239;-56
2023/08/05 11:08:20;;;;;;;3.53;2.80;;;;;;;19.86;76.60;98514.03;4945915;28;20238;-57
2023/08/05 11:10:48;;;;;;;3.20;2.53;;;;;;;19.82;76.82;98511.00;4947943;28;20240;-57
2023/08/05 11:13:15;;;;;;;5.57;3.20;;;;;;;19.97;70.50;98509.91;4945125;28;20240;-57
2023/08/05 11:15:42;;;;;;;9.30;3.43;;;;;;;19.93;72.63;98512.16;4948429;28;20252;-57
2023/08/05 11:18:08;;;;;;;4.93;3.20;;;;;;;20.03;71.79;98517.00;4944995;28;20220;-55
2023/08/05 11:20:36;;;;;;;3.50;2.63;;;;;;;20.14;74.76;98508.34;4947692;28;20223;-57
2023/08/05 11:23:02;;;;;;;3.23;2.90;;;;;;;20.17;71.35;98512.41;4943825;28;20249;-56
2023/08/05 11:25:31;;;;;;;3.63;2.83;;;;;;;20.26;70.72;98503.16;4948488;28;20244;-57
2023/08/05 11:27:58;;;;;;;3.43;3.13;;;;;;;20.21;72.60;98498.50;4944974;28;20231;-58
2023/08/05 11:30:25;;;;;;;8.27;3.10;;;;;;;20.46;74.09;98494.22;4948052;28;20295;-57
2023/08/05 11:32:53;;;;;;;4.17;2.80;;;;;;;20.70;69.19;98495.19;4944855;28;20388;-57